sensor_id;sensor_type;location;lat;lon;timestamp;temperature;humidity
354;DHT22;165;53.592;10.044;2022-12-20T00:02:21;8.00;99.90
354;DHT22;165;53.592;10.044;2022-12-20T00:04:46;8.00;99.90
354;DHT22;165;53.592;10.044;2022-12-20T00:07:12;8.10;99.90
354;DHT22;165;53.592;10.044;2022-12-20T00:09:37;8.20;99.90
354;DHT22;165;53.592;10.044;2022-12-20T00:12:03;8.30;99.90
354;DHT22;165;53.592;10.044;2022-12-20T00:14:28;8.30;99.90
354;DHT22;165;53.592;10.044;2022-12-20T00:16:54;8.30;99.90
354;DHT22;165;53.592;10.044;2022-12-20T00:19:21;8.30;99.90
354;DHT22;165;53.592;10.044;2022-12-20T00:21:46;8.30;99.90
354;DHT22;165;53.592;10.044;2022-12-20T00:24:12;8.30;99.90
354;DHT22;165;53.592;10.044;2022-12-20T00:26:38;8.30;99.90
354;DHT22;165;53.592;10.044;2022-12-20T00:29:04;8.30;99.90
354;DHT22;165;53.592;10.044;2022-12-20T00:31:30;8.30;99.90
354;DHT22;165;53.592;10.044;2022-12-20T00:33:57;8.30;99.90
354;DHT22;165;53.592;10.044;2022-12-20T00:36:24;8.30;99.90
354;DHT22;165;53.592;10.044;2022-12-20T00:38:52;8.40;99.90
354;DHT22;165;53.592;10.044;2022-12-20T00:41:20;8.40;99.90
354;DHT22;165;53.592;10.044;2022-12-20T00:43:47;8.50;99.90
354;DHT22;165;53.592;10.044;2022-12-20T00:46:15;8.50;99.90
354;DHT22;165;53.592;10.044;2022-12-20T00:48:41;8.50;99.90
354;DHT22;165;53.592;10.044;2022-12-20T00:51:10;8.50;99.90
354;DHT22;165;53.592;10.044;2022-12-20T00:53:36;8.50;99.90
354;DHT22;165;53.592;10.044;2022-12-20T00:56:03;8.50;99.90
354;DHT22;165;53.592;10.044;2022-12-20T00:58:30;8.50;99.90
354;DHT22;165;53.592;10.044;2022-12-20T01:00:56;8.50;99.90
354;DHT22;165;53.592;10.044;2022-12-20T01:03:21;8.40;99.90
354;DHT22;165;53.592;10.044;2022-12-20T01:05:55;8.40;99.90
354;DHT22;165;53.592;10.044;2022-12-20T01:08:22;8.30;99.90
354;DHT22;165;53.592;10.044;2022-12-20T01:11:12;8.30;99.90
354;DHT22;165;53.592;10.044;2022-12-20T01:13:41;8.30;99.90
354;DHT22;165;53.592;10.044;2022-12-20T01:16:10;8.20;99.90
354;DHT22;165;53.592;10.044;2022-12-20T01:18:36;8.20;99.90
354;DHT22;165;53.592;10.044;2022-12-20T01:21:06;8.20;99.90
354;DHT22;165;53.592;10.044;2022-12-20T01:23:32;8.20;99.90
354;DHT22;165;53.592;10.044;2022-12-20T01:25:59;8.20;99.90
354;DHT22;165;53.592;10.044;2022-12-20T01:28:25;8.30;99.90
354;DHT22;165;53.592;10.044;2022-12-20T01:30:50;8.30;99.90
354;DHT22;165;53.592;10.044;2022-12-20T01:33:16;8.40;99.90
354;DHT22;165;53.592;10.044;2022-12-20T01:35:41;8.50;99.90
354;DHT22;165;53.592;10.044;2022-12-20T01:38:07;8.50;99.90
354;DHT22;165;53.592;10.044;2022-12-20T01:40:32;8.60;99.90
354;DHT22;165;53.592;10.044;2022-12-20T01:42:58;8.50;99.90
354;DHT22;165;53.592;10.044;2022-12-20T01:45:28;8.50;99.90
354;DHT22;165;53.592;10.044;2022-12-20T01:47:55;8.50;99.90
354;DHT22;165;53.592;10.044;2022-12-20T01:50:22;8.60;99.90
354;DHT22;165;53.592;10.044;2022-12-20T01:52:48;8.60;99.90
354;DHT22;165;53.592;10.044;2022-12-20T01:55:24;8.60;99.90
354;DHT22;165;53.592;10.044;2022-12-20T01:57:58;8.60;99.90
354;DHT22;165;53.592;10.044;2022-12-20T02:00:26;8.60;99.90
354;DHT22;165;53.592;10.044;2022-12-20T02:02:52;8.60;99.90
354;DHT22;165;53.592;10.044;2022-12-20T02:05:20;8.70;99.90
354;DHT22;165;53.592;10.044;2022-12-20T02:07:50;8.70;99.90
354;DHT22;165;53.592;10.044;2022-12-20T02:10:17;8.70;99.90
354;DHT22;165;53.592;10.044;2022-12-20T02:12:46;8.70;99.90
354;DHT22;165;53.592;10.044;2022-12-20T02:15:27;8.80;99.90
354;DHT22;165;53.592;10.044;2022-12-20T02:18:19;8.80;99.90
354;DHT22;165;53.592;10.044;2022-12-20T02:21:07;8.80;99.90
354;DHT22;165;53.592;10.044;2022-12-20T02:26:33;8.90;99.90
354;DHT22;165;53.592;10.044;2022-12-20T02:29:30;8.90;99.90
354;DHT22;165;53.592;10.044;2022-12-20T02:32:15;8.90;99.90
354;DHT22;165;53.592;10.044;2022-12-20T02:34:43;8.90;99.90
354;DHT22;165;53.592;10.044;2022-12-20T02:37:09;9.00;99.90
354;DHT22;165;53.592;10.044;2022-12-20T02:39:36;9.00;99.90
354;DHT22;165;53.592;10.044;2022-12-20T02:42:20;9.00;99.90
354;DHT22;165;53.592;10.044;2022-12-20T02:45:05;9.10;99.90
354;DHT22;165;53.592;10.044;2022-12-20T02:47:51;9.10;99.90
354;DHT22;165;53.592;10.044;2022-12-20T02:50:54;9.20;99.90
354;DHT22;165;53.592;10.044;2022-12-20T02:53:13;9.20;99.90
354;DHT22;165;53.592;10.044;2022-12-20T02:55:53;9.20;99.90
354;DHT22;165;53.592;10.044;2022-12-20T02:58:31;9.20;99.90
354;DHT22;165;53.592;10.044;2022-12-20T03:01:02;9.30;99.90
354;DHT22;165;53.592;10.044;2022-12-20T03:03:33;9.30;99.90
354;DHT22;165;53.592;10.044;2022-12-20T03:05:59;9.30;99.90
354;DHT22;165;53.592;10.044;2022-12-20T03:08:25;9.30;99.90
354;DHT22;165;53.592;10.044;2022-12-20T03:10:52;9.40;99.90
354;DHT22;165;53.592;10.044;2022-12-20T03:13:18;9.40;99.90
354;DHT22;165;53.592;10.044;2022-12-20T03:15:47;9.40;99.90
354;DHT22;165;53.592;10.044;2022-12-20T03:18:13;9.40;99.90
354;DHT22;165;53.592;10.044;2022-12-20T03:20:38;9.40;99.90
354;DHT22;165;53.592;10.044;2022-12-20T03:23:04;9.40;99.90
354;DHT22;165;53.592;10.044;2022-12-20T03:25:29;9.50;99.90
354;DHT22;165;53.592;10.044;2022-12-20T03:27:55;9.50;99.90
354;DHT22;165;53.592;10.044;2022-12-20T03:30:20;9.50;99.90
354;DHT22;165;53.592;10.044;2022-12-20T03:32:46;9.60;99.90
354;DHT22;165;53.592;10.044;2022-12-20T03:35:12;9.60;99.90
354;DHT22;165;53.592;10.044;2022-12-20T03:37:37;9.70;99.90
354;DHT22;165;53.592;10.044;2022-12-20T03:40:03;9.60;99.90
354;DHT22;165;53.592;10.044;2022-12-20T03:42:29;9.60;99.90
354;DHT22;165;53.592;10.044;2022-12-20T03:44:55;9.70;99.90
354;DHT22;165;53.592;10.044;2022-12-20T03:47:20;9.60;99.90
354;DHT22;165;53.592;10.044;2022-12-20T03:49:46;9.60;99.90
354;DHT22;165;53.592;10.044;2022-12-20T03:52:12;9.60;99.90
354;DHT22;165;53.592;10.044;2022-12-20T03:54:38;9.50;99.90
354;DHT22;165;53.592;10.044;2022-12-20T03:57:04;9.60;99.90
354;DHT22;165;53.592;10.044;2022-12-20T03:59:30;9.60;99.90
354;DHT22;165;53.592;10.044;2022-12-20T04:01:55;9.60;99.90
354;DHT22;165;53.592;10.044;2022-12-20T04:04:21;9.60;99.90
354;DHT22;165;53.592;10.044;2022-12-20T04:06:46;9.60;99.90
354;DHT22;165;53.592;10.044;2022-12-20T04:09:13;9.70;99.90
354;DHT22;165;53.592;10.044;2022-12-20T04:11:38;9.70;99.90
354;DHT22;165;53.592;10.044;2022-12-20T04:14:04;9.70;99.90
354;DHT22;165;53.592;10.044;2022-12-20T04:16:30;9.70;99.90
354;DHT22;165;53.592;10.044;2022-12-20T04:18:56;9.80;99.90
354;DHT22;165;53.592;10.044;2022-12-20T04:21:23;9.90;99.90
354;DHT22;165;53.592;10.044;2022-12-20T04:23:49;9.80;99.90
354;DHT22;165;53.592;10.044;2022-12-20T04:26:15;9.90;99.90
354;DHT22;165;53.592;10.044;2022-12-20T04:28:40;9.90;99.90
354;DHT22;165;53.592;10.044;2022-12-20T04:31:06;9.80;99.90
354;DHT22;165;53.592;10.044;2022-12-20T04:33:32;9.80;99.90
354;DHT22;165;53.592;10.044;2022-12-20T04:35:57;9.80;99.90
354;DHT22;165;53.592;10.044;2022-12-20T04:38:23;9.80;99.90
354;DHT22;165;53.592;10.044;2022-12-20T04:40:50;9.80;99.90
354;DHT22;165;53.592;10.044;2022-12-20T04:43:16;9.70;99.90
354;DHT22;165;53.592;10.044;2022-12-20T04:45:43;9.70;99.90
354;DHT22;165;53.592;10.044;2022-12-20T04:48:09;9.70;99.90
354;DHT22;165;53.592;10.044;2022-12-20T04:50:35;9.70;99.90
354;DHT22;165;53.592;10.044;2022-12-20T04:53:00;9.70;99.90
354;DHT22;165;53.592;10.044;2022-12-20T04:55:44;9.60;99.90
354;DHT22;165;53.592;10.044;2022-12-20T04:58:10;9.60;99.90
354;DHT22;165;53.592;10.044;2022-12-20T05:00:35;9.60;99.90
354;DHT22;165;53.592;10.044;2022-12-20T05:03:01;9.60;99.90
354;DHT22;165;53.592;10.044;2022-12-20T05:05:27;9.60;99.90
354;DHT22;165;53.592;10.044;2022-12-20T05:07:52;9.60;99.90
354;DHT22;165;53.592;10.044;2022-12-20T05:10:18;9.70;99.90
354;DHT22;165;53.592;10.044;2022-12-20T05:12:44;9.70;99.90
354;DHT22;165;53.592;10.044;2022-12-20T05:15:10;9.70;99.90
354;DHT22;165;53.592;10.044;2022-12-20T05:17:36;9.70;99.90
354;DHT22;165;53.592;10.044;2022-12-20T05:20:02;9.70;99.90
354;DHT22;165;53.592;10.044;2022-12-20T05:22:28;9.70;99.90
354;DHT22;165;53.592;10.044;2022-12-20T05:25:12;9.60;99.90
354;DHT22;165;53.592;10.044;2022-12-20T05:27:57;9.60;99.90
354;DHT22;165;53.592;10.044;2022-12-20T05:30:23;9.60;99.90
354;DHT22;165;53.592;10.044;2022-12-20T05:32:49;9.60;99.90
354;DHT22;165;53.592;10.044;2022-12-20T05:35:15;9.60;99.90
354;DHT22;165;53.592;10.044;2022-12-20T05:37:40;9.60;99.90
354;DHT22;165;53.592;10.044;2022-12-20T05:40:06;9.60;99.90
354;DHT22;165;53.592;10.044;2022-12-20T05:42:32;9.60;99.90
354;DHT22;165;53.592;10.044;2022-12-20T05:44:58;9.50;99.90
354;DHT22;165;53.592;10.044;2022-12-20T05:47:25;9.60;99.90
354;DHT22;165;53.592;10.044;2022-12-20T05:49:50;9.60;99.90
354;DHT22;165;53.592;10.044;2022-12-20T05:52:16;9.60;99.90
354;DHT22;165;53.592;10.044;2022-12-20T05:54:41;9.50;99.90
354;DHT22;165;53.592;10.044;2022-12-20T05:57:07;9.50;99.90
354;DHT22;165;53.592;10.044;2022-12-20T05:59:32;9.40;99.90
354;DHT22;165;53.592;10.044;2022-12-20T06:01:58;9.40;99.90
354;DHT22;165;53.592;10.044;2022-12-20T06:04:23;9.40;99.90
354;DHT22;165;53.592;10.044;2022-12-20T06:06:49;9.40;99.90
354;DHT22;165;53.592;10.044;2022-12-20T06:09:14;9.30;99.90
354;DHT22;165;53.592;10.044;2022-12-20T06:11:40;9.40;99.90
354;DHT22;165;53.592;10.044;2022-12-20T06:14:05;9.30;99.90
354;DHT22;165;53.592;10.044;2022-12-20T06:16:31;9.30;99.90
354;DHT22;165;53.592;10.044;2022-12-20T06:18:56;9.30;99.90
354;DHT22;165;53.592;10.044;2022-12-20T06:21:22;9.30;99.90
354;DHT22;165;53.592;10.044;2022-12-20T06:23:47;9.20;99.90
354;DHT22;165;53.592;10.044;2022-12-20T06:26:13;9.30;99.90
354;DHT22;165;53.592;10.044;2022-12-20T06:28:39;9.30;99.90
354;DHT22;165;53.592;10.044;2022-12-20T06:31:08;9.40;99.90
354;DHT22;165;53.592;10.044;2022-12-20T06:33:35;9.40;99.90
354;DHT22;165;53.592;10.044;2022-12-20T06:36:01;9.40;99.90
354;DHT22;165;53.592;10.044;2022-12-20T06:38:26;9.50;99.90
354;DHT22;165;53.592;10.044;2022-12-20T06:40:52;9.50;99.90
354;DHT22;165;53.592;10.044;2022-12-20T06:43:17;9.50;99.90
354;DHT22;165;53.592;10.044;2022-12-20T06:45:43;9.50;99.90
354;DHT22;165;53.592;10.044;2022-12-20T06:48:09;9.50;99.90
354;DHT22;165;53.592;10.044;2022-12-20T06:50:34;9.50;99.90
354;DHT22;165;53.592;10.044;2022-12-20T06:53:00;9.50;99.90
354;DHT22;165;53.592;10.044;2022-12-20T06:55:25;9.50;99.90
354;DHT22;165;53.592;10.044;2022-12-20T06:57:51;9.50;99.90
354;DHT22;165;53.592;10.044;2022-12-20T07:00:17;9.40;99.90
354;DHT22;165;53.592;10.044;2022-12-20T07:02:42;9.50;99.90
354;DHT22;165;53.592;10.044;2022-12-20T07:05:09;9.50;99.90
354;DHT22;165;53.592;10.044;2022-12-20T07:07:35;9.50;99.90
354;DHT22;165;53.592;10.044;2022-12-20T07:10:00;9.50;99.90
354;DHT22;165;53.592;10.044;2022-12-20T07:12:28;9.50;99.90
354;DHT22;165;53.592;10.044;2022-12-20T07:14:53;9.50;99.90
354;DHT22;165;53.592;10.044;2022-12-20T07:17:19;9.50;99.90
354;DHT22;165;53.592;10.044;2022-12-20T07:19:45;9.50;99.90
354;DHT22;165;53.592;10.044;2022-12-20T07:22:10;9.50;99.90
354;DHT22;165;53.592;10.044;2022-12-20T07:24:36;9.50;99.90
354;DHT22;165;53.592;10.044;2022-12-20T07:27:01;9.40;99.90
354;DHT22;165;53.592;10.044;2022-12-20T07:29:27;9.40;99.90
354;DHT22;165;53.592;10.044;2022-12-20T07:31:53;9.40;99.90
354;DHT22;165;53.592;10.044;2022-12-20T07:34:19;9.40;99.90
354;DHT22;165;53.592;10.044;2022-12-20T07:36:45;9.50;99.90
354;DHT22;165;53.592;10.044;2022-12-20T07:39:10;9.40;99.90
354;DHT22;165;53.592;10.044;2022-12-20T07:41:36;9.50;99.90
354;DHT22;165;53.592;10.044;2022-12-20T07:44:01;9.50;99.90
354;DHT22;165;53.592;10.044;2022-12-20T07:46:27;9.50;99.90
354;DHT22;165;53.592;10.044;2022-12-20T07:48:53;9.50;99.90
354;DHT22;165;53.592;10.044;2022-12-20T07:51:46;9.50;99.90
354;DHT22;165;53.592;10.044;2022-12-20T07:54:17;9.50;99.90
354;DHT22;165;53.592;10.044;2022-12-20T07:56:46;9.50;99.90
354;DHT22;165;53.592;10.044;2022-12-20T07:59:15;9.50;99.90
354;DHT22;165;53.592;10.044;2022-12-20T08:01:44;9.50;99.90
354;DHT22;165;53.592;10.044;2022-12-20T08:04:13;9.50;99.90
354;DHT22;165;53.592;10.044;2022-12-20T08:06:41;9.50;99.90
354;DHT22;165;53.592;10.044;2022-12-20T08:09:08;9.50;99.90
354;DHT22;165;53.592;10.044;2022-12-20T08:11:36;9.40;99.90
354;DHT22;165;53.592;10.044;2022-12-20T08:14:04;9.40;99.90
354;DHT22;165;53.592;10.044;2022-12-20T08:16:30;9.40;99.90
354;DHT22;165;53.592;10.044;2022-12-20T08:18:56;9.30;99.90
354;DHT22;165;53.592;10.044;2022-12-20T08:21:23;9.30;99.90
354;DHT22;165;53.592;10.044;2022-12-20T08:23:48;9.30;99.90
354;DHT22;165;53.592;10.044;2022-12-20T08:26:14;9.40;99.90
354;DHT22;165;53.592;10.044;2022-12-20T08:28:39;9.40;99.90
354;DHT22;165;53.592;10.044;2022-12-20T08:31:07;9.40;99.90
354;DHT22;165;53.592;10.044;2022-12-20T08:33:34;9.40;99.90
354;DHT22;165;53.592;10.044;2022-12-20T08:36:02;9.40;99.90
354;DHT22;165;53.592;10.044;2022-12-20T08:38:29;9.40;99.90
354;DHT22;165;53.592;10.044;2022-12-20T08:40:55;9.40;99.90
354;DHT22;165;53.592;10.044;2022-12-20T08:43:25;9.50;99.90
354;DHT22;165;53.592;10.044;2022-12-20T08:45:54;9.50;99.90
354;DHT22;165;53.592;10.044;2022-12-20T08:48:20;9.60;99.90
354;DHT22;165;53.592;10.044;2022-12-20T08:50:46;9.60;99.90
354;DHT22;165;53.592;10.044;2022-12-20T08:53:11;9.70;99.90
354;DHT22;165;53.592;10.044;2022-12-20T08:55:37;9.80;99.90
354;DHT22;165;53.592;10.044;2022-12-20T08:58:02;9.90;99.90
354;DHT22;165;53.592;10.044;2022-12-20T09:00:28;9.90;99.90
354;DHT22;165;53.592;10.044;2022-12-20T09:02:54;9.90;99.90
354;DHT22;165;53.592;10.044;2022-12-20T09:05:20;9.90;99.90
354;DHT22;165;53.592;10.044;2022-12-20T09:07:47;10.00;99.90
354;DHT22;165;53.592;10.044;2022-12-20T09:10:12;10.00;99.90
354;DHT22;165;53.592;10.044;2022-12-20T09:12:39;10.00;99.90
354;DHT22;165;53.592;10.044;2022-12-20T09:17:39;10.10;99.90
354;DHT22;165;53.592;10.044;2022-12-20T09:20:08;10.20;99.90
354;DHT22;165;53.592;10.044;2022-12-20T09:22:34;10.20;99.90
354;DHT22;165;53.592;10.044;2022-12-20T09:24:59;10.30;99.90
354;DHT22;165;53.592;10.044;2022-12-20T09:27:25;10.40;99.90
354;DHT22;165;53.592;10.044;2022-12-20T09:29:51;10.50;99.90
354;DHT22;165;53.592;10.044;2022-12-20T09:32:16;10.60;99.90
354;DHT22;165;53.592;10.044;2022-12-20T09:34:42;10.70;99.90
354;DHT22;165;53.592;10.044;2022-12-20T09:37:07;10.80;99.90
354;DHT22;165;53.592;10.044;2022-12-20T09:39:33;10.80;99.90
354;DHT22;165;53.592;10.044;2022-12-20T09:41:59;10.80;99.90
354;DHT22;165;53.592;10.044;2022-12-20T09:44:31;10.70;99.90
354;DHT22;165;53.592;10.044;2022-12-20T09:47:03;10.80;99.90
354;DHT22;165;53.592;10.044;2022-12-20T09:49:32;10.70;99.90
354;DHT22;165;53.592;10.044;2022-12-20T09:59:55;10.60;99.90
354;DHT22;165;53.592;10.044;2022-12-20T10:02:28;10.70;99.90
354;DHT22;165;53.592;10.044;2022-12-20T10:04:54;10.70;99.90
354;DHT22;165;53.592;10.044;2022-12-20T10:07:40;10.80;99.90
354;DHT22;165;53.592;10.044;2022-12-20T10:15:57;10.70;99.90
354;DHT22;165;53.592;10.044;2022-12-20T10:21:30;10.80;99.90
354;DHT22;165;53.592;10.044;2022-12-20T10:24:01;10.90;99.90
354;DHT22;165;53.592;10.044;2022-12-20T10:26:28;11.00;99.90
354;DHT22;165;53.592;10.044;2022-12-20T10:28:55;11.10;99.90
354;DHT22;165;53.592;10.044;2022-12-20T10:31:21;11.00;99.90
354;DHT22;165;53.592;10.044;2022-12-20T10:33:48;11.00;99.90
354;DHT22;165;53.592;10.044;2022-12-20T10:38:49;11.00;99.90
354;DHT22;165;53.592;10.044;2022-12-20T10:41:19;11.00;99.90
354;DHT22;165;53.592;10.044;2022-12-20T10:43:52;11.00;99.90
354;DHT22;165;53.592;10.044;2022-12-20T10:46:19;11.10;99.90
354;DHT22;165;53.592;10.044;2022-12-20T10:48:47;11.10;99.90
354;DHT22;165;53.592;10.044;2022-12-20T10:51:21;11.20;99.90
354;DHT22;165;53.592;10.044;2022-12-20T10:54:01;11.20;99.90
354;DHT22;165;53.592;10.044;2022-12-20T10:56:36;11.20;99.90
354;DHT22;165;53.592;10.044;2022-12-20T10:59:25;11.50;99.90
354;DHT22;165;53.592;10.044;2022-12-20T11:01:52;11.20;99.90
354;DHT22;165;53.592;10.044;2022-12-20T11:04:33;11.20;99.90
354;DHT22;165;53.592;10.044;2022-12-20T11:07:00;11.20;99.90
354;DHT22;165;53.592;10.044;2022-12-20T11:12:15;11.30;99.90
354;DHT22;165;53.592;10.044;2022-12-20T11:14:44;11.20;99.90
354;DHT22;165;53.592;10.044;2022-12-20T11:17:36;11.40;99.90
354;DHT22;165;53.592;10.044;2022-12-20T11:20:27;11.20;99.90
354;DHT22;165;53.592;10.044;2022-12-20T11:25:44;11.20;99.90
354;DHT22;165;53.592;10.044;2022-12-20T11:28:50;11.30;99.90
354;DHT22;165;53.592;10.044;2022-12-20T11:36:54;11.30;99.90
354;DHT22;165;53.592;10.044;2022-12-20T11:45:22;11.40;99.90
354;DHT22;165;53.592;10.044;2022-12-20T11:48:14;11.40;99.90
354;DHT22;165;53.592;10.044;2022-12-20T11:51:20;11.50;99.90
354;DHT22;165;53.592;10.044;2022-12-20T11:53:53;11.50;99.90
354;DHT22;165;53.592;10.044;2022-12-20T11:56:43;11.40;99.90
354;DHT22;165;53.592;10.044;2022-12-20T11:59:36;11.40;99.90
354;DHT22;165;53.592;10.044;2022-12-20T12:04:42;11.50;99.90
354;DHT22;165;53.592;10.044;2022-12-20T12:07:17;11.50;99.90
354;DHT22;165;53.592;10.044;2022-12-20T12:10:12;11.60;99.90
354;DHT22;165;53.592;10.044;2022-12-20T12:12:46;11.50;99.90
354;DHT22;165;53.592;10.044;2022-12-20T12:15:29;11.50;99.90
354;DHT22;165;53.592;10.044;2022-12-20T12:18:18;11.50;99.90
354;DHT22;165;53.592;10.044;2022-12-20T12:20:53;11.50;99.90
354;DHT22;165;53.592;10.044;2022-12-20T12:26:34;11.50;99.90
354;DHT22;165;53.592;10.044;2022-12-20T12:29:09;11.50;99.90
354;DHT22;165;53.592;10.044;2022-12-20T12:34:54;11.40;99.90
354;DHT22;165;53.592;10.044;2022-12-20T12:42:54;11.40;99.90
354;DHT22;165;53.592;10.044;2022-12-20T12:45:34;11.30;99.90
354;DHT22;165;53.592;10.044;2022-12-20T12:50:45;11.20;99.90
354;DHT22;165;53.592;10.044;2022-12-20T12:53:18;11.20;99.90
354;DHT22;165;53.592;10.044;2022-12-20T12:55:48;11.20;99.90
354;DHT22;165;53.592;10.044;2022-12-20T12:58:29;11.20;99.90
354;DHT22;165;53.592;10.044;2022-12-20T13:00:59;11.20;99.90
354;DHT22;165;53.592;10.044;2022-12-20T13:04:19;11.20;99.90
354;DHT22;165;53.592;10.044;2022-12-20T13:09:21;11.10;99.90
354;DHT22;165;53.592;10.044;2022-12-20T13:17:51;11.10;99.90
354;DHT22;165;53.592;10.044;2022-12-20T13:20:24;11.10;99.90
354;DHT22;165;53.592;10.044;2022-12-20T13:25:42;11.00;99.90
354;DHT22;165;53.592;10.044;2022-12-20T13:33:48;10.90;99.90
354;DHT22;165;53.592;10.044;2022-12-20T13:41:23;10.70;99.90
354;DHT22;165;53.592;10.044;2022-12-20T13:43:50;10.70;99.90
354;DHT22;165;53.592;10.044;2022-12-20T13:49:10;10.60;99.90
354;DHT22;165;53.592;10.044;2022-12-20T13:51:36;10.60;99.90
354;DHT22;165;53.592;10.044;2022-12-20T13:54:11;10.60;99.90
354;DHT22;165;53.592;10.044;2022-12-20T13:56:48;10.60;99.90
354;DHT22;165;53.592;10.044;2022-12-20T14:06:59;10.60;99.90
354;DHT22;165;53.592;10.044;2022-12-20T14:15:46;10.60;99.90
354;DHT22;165;53.592;10.044;2022-12-20T14:18:23;10.60;99.90
354;DHT22;165;53.592;10.044;2022-12-20T14:20:58;10.60;99.90
354;DHT22;165;53.592;10.044;2022-12-20T14:23:40;10.60;99.90
354;DHT22;165;53.592;10.044;2022-12-20T14:26:11;10.50;99.90
354;DHT22;165;53.592;10.044;2022-12-20T14:28:44;10.20;99.90
354;DHT22;165;53.592;10.044;2022-12-20T14:45:05;10.30;99.90
354;DHT22;165;53.592;10.044;2022-12-20T14:47:31;10.40;99.90
354;DHT22;165;53.592;10.044;2022-12-20T14:50:03;10.30;99.90
354;DHT22;165;53.592;10.044;2022-12-20T14:52:34;10.30;99.90
354;DHT22;165;53.592;10.044;2022-12-20T15:00:53;10.30;99.90
354;DHT22;165;53.592;10.044;2022-12-20T15:10:53;10.20;99.90
354;DHT22;165;53.592;10.044;2022-12-20T15:16:57;10.10;99.90
354;DHT22;165;53.592;10.044;2022-12-20T15:22:23;10.10;99.90
354;DHT22;165;53.592;10.044;2022-12-20T15:24:48;10.00;99.90
354;DHT22;165;53.592;10.044;2022-12-20T15:27:19;10.10;99.90
354;DHT22;165;53.592;10.044;2022-12-20T15:29:45;10.10;99.90
354;DHT22;165;53.592;10.044;2022-12-20T15:32:23;10.10;99.90
354;DHT22;165;53.592;10.044;2022-12-20T15:34:54;10.20;99.90
354;DHT22;165;53.592;10.044;2022-12-20T15:37:22;10.00;99.90
354;DHT22;165;53.592;10.044;2022-12-20T15:39:53;9.90;99.90
354;DHT22;165;53.592;10.044;2022-12-20T15:42:19;10.00;99.90
354;DHT22;165;53.592;10.044;2022-12-20T15:44:47;10.10;99.90
354;DHT22;165;53.592;10.044;2022-12-20T15:47:15;10.10;99.90
354;DHT22;165;53.592;10.044;2022-12-20T15:49:47;10.20;99.90
354;DHT22;165;53.592;10.044;2022-12-20T15:52:19;10.10;99.90
354;DHT22;165;53.592;10.044;2022-12-20T15:54:45;10.20;99.90
354;DHT22;165;53.592;10.044;2022-12-20T15:57:13;10.20;99.90
354;DHT22;165;53.592;10.044;2022-12-20T15:59:39;10.20;99.90
354;DHT22;165;53.592;10.044;2022-12-20T16:02:24;10.10;99.90
354;DHT22;165;53.592;10.044;2022-12-20T16:04:50;10.10;99.90
354;DHT22;165;53.592;10.044;2022-12-20T16:07:16;10.20;99.90
354;DHT22;165;53.592;10.044;2022-12-20T16:09:43;10.20;99.90
354;DHT22;165;53.592;10.044;2022-12-20T16:12:34;10.20;99.90
354;DHT22;165;53.592;10.044;2022-12-20T16:14:59;10.20;99.90
354;DHT22;165;53.592;10.044;2022-12-20T16:17:26;10.20;99.90
354;DHT22;165;53.592;10.044;2022-12-20T16:20:21;10.30;99.90
354;DHT22;165;53.592;10.044;2022-12-20T16:22:46;10.40;99.90
354;DHT22;165;53.592;10.044;2022-12-20T16:25:33;10.30;99.90
354;DHT22;165;53.592;10.044;2022-12-20T16:27:59;10.30;99.90
354;DHT22;165;53.592;10.044;2022-12-20T16:30:25;10.30;99.90
354;DHT22;165;53.592;10.044;2022-12-20T16:32:51;10.40;99.90
354;DHT22;165;53.592;10.044;2022-12-20T16:35:29;10.30;99.90
354;DHT22;165;53.592;10.044;2022-12-20T16:37:56;10.30;99.90
354;DHT22;165;53.592;10.044;2022-12-20T16:40:28;10.30;99.90
354;DHT22;165;53.592;10.044;2022-12-20T16:42:55;10.30;99.90
354;DHT22;165;53.592;10.044;2022-12-20T16:45:27;10.30;99.90
354;DHT22;165;53.592;10.044;2022-12-20T16:47:57;10.30;99.90
354;DHT22;165;53.592;10.044;2022-12-20T16:50:25;10.30;99.90
354;DHT22;165;53.592;10.044;2022-12-20T16:52:58;10.30;99.90
354;DHT22;165;53.592;10.044;2022-12-20T16:55:26;10.30;99.90
354;DHT22;165;53.592;10.044;2022-12-20T16:57:53;10.30;99.90
354;DHT22;165;53.592;10.044;2022-12-20T17:00:21;10.40;99.90
354;DHT22;165;53.592;10.044;2022-12-20T17:02:48;10.30;99.90
354;DHT22;165;53.592;10.044;2022-12-20T17:05:26;10.30;99.90
354;DHT22;165;53.592;10.044;2022-12-20T17:07:52;10.30;99.90
354;DHT22;165;53.592;10.044;2022-12-20T17:10:18;10.20;99.90
354;DHT22;165;53.592;10.044;2022-12-20T17:12:44;10.30;99.90
354;DHT22;165;53.592;10.044;2022-12-20T17:15:33;10.30;99.90
354;DHT22;165;53.592;10.044;2022-12-20T17:17:59;10.30;99.90
354;DHT22;165;53.592;10.044;2022-12-20T17:20:25;10.30;99.90
354;DHT22;165;53.592;10.044;2022-12-20T17:22:53;10.30;99.90
354;DHT22;165;53.592;10.044;2022-12-20T17:25:22;10.30;99.90
354;DHT22;165;53.592;10.044;2022-12-20T17:27:50;10.30;99.90
354;DHT22;165;53.592;10.044;2022-12-20T17:30:17;10.30;99.90
354;DHT22;165;53.592;10.044;2022-12-20T17:32:43;10.40;99.90
354;DHT22;165;53.592;10.044;2022-12-20T17:35:34;10.30;99.90
354;DHT22;165;53.592;10.044;2022-12-20T17:38:02;10.40;99.90
354;DHT22;165;53.592;10.044;2022-12-20T17:40:31;10.40;99.90
354;DHT22;165;53.592;10.044;2022-12-20T17:42:56;10.50;99.90
354;DHT22;165;53.592;10.044;2022-12-20T17:45:31;10.40;99.90
354;DHT22;165;53.592;10.044;2022-12-20T17:47:57;10.40;99.90
354;DHT22;165;53.592;10.044;2022-12-20T17:50:24;10.40;99.90
354;DHT22;165;53.592;10.044;2022-12-20T17:52:51;10.40;99.90
354;DHT22;165;53.592;10.044;2022-12-20T17:55:23;10.50;99.90
354;DHT22;165;53.592;10.044;2022-12-20T17:57:50;10.50;99.90
354;DHT22;165;53.592;10.044;2022-12-20T18:00:31;10.50;99.90
354;DHT22;165;53.592;10.044;2022-12-20T18:02:57;10.50;99.90
354;DHT22;165;53.592;10.044;2022-12-20T18:05:23;10.50;99.90
354;DHT22;165;53.592;10.044;2022-12-20T18:07:54;10.50;99.90
354;DHT22;165;53.592;10.044;2022-12-20T18:10:21;10.50;99.90
354;DHT22;165;53.592;10.044;2022-12-20T18:12:48;10.60;99.90
354;DHT22;165;53.592;10.044;2022-12-20T18:15:14;10.60;99.90
354;DHT22;165;53.592;10.044;2022-12-20T18:17:40;10.50;99.90
354;DHT22;165;53.592;10.044;2022-12-20T18:20:08;10.50;99.90
354;DHT22;165;53.592;10.044;2022-12-20T18:22:35;10.50;99.90
354;DHT22;165;53.592;10.044;2022-12-20T18:25:00;10.50;99.90
354;DHT22;165;53.592;10.044;2022-12-20T18:27:39;10.50;99.90
354;DHT22;165;53.592;10.044;2022-12-20T18:30:06;10.50;99.90
354;DHT22;165;53.592;10.044;2022-12-20T18:32:33;10.50;99.90
354;DHT22;165;53.592;10.044;2022-12-20T18:34:58;10.50;99.90
354;DHT22;165;53.592;10.044;2022-12-20T18:37:24;10.50;99.90
354;DHT22;165;53.592;10.044;2022-12-20T18:39:50;10.50;99.90
354;DHT22;165;53.592;10.044;2022-12-20T18:42:17;10.50;99.90
354;DHT22;165;53.592;10.044;2022-12-20T18:44:43;10.50;99.90
354;DHT22;165;53.592;10.044;2022-12-20T18:47:09;10.50;99.90
354;DHT22;165;53.592;10.044;2022-12-20T18:49:34;10.50;99.90
354;DHT22;165;53.592;10.044;2022-12-20T18:52:01;10.50;99.90
354;DHT22;165;53.592;10.044;2022-12-20T18:54:27;10.50;99.90